createdAt,value
2023-05-08T00:00:47.234Z,27.61
2023-05-08T00:01:47.285Z,27.64
2023-05-08T00:02:47.350Z,27.61
2023-05-08T00:03:47.544Z,27.62
2023-05-08T00:04:47.403Z,27.61
2023-05-08T00:05:47.423Z,27.62
2023-05-08T00:06:47.465Z,27.62
2023-05-08T00:07:47.492Z,27.64
2023-05-08T00:08:47.538Z,27.65
2023-05-08T00:09:47.582Z,27.62
2023-05-08T00:10:47.620Z,27.64
2023-05-08T00:11:47.670Z,27.62
2023-05-08T00:12:47.718Z,27.61
2023-05-08T00:13:47.750Z,27.62
2023-05-08T00:14:47.794Z,27.64
2023-05-08T00:15:47.822Z,27.62
2023-05-08T00:16:47.907Z,27.62
2023-05-08T00:17:47.932Z,27.64
2023-05-08T00:18:47.950Z,27.64
2023-05-08T00:19:48.013Z,27.62
2023-05-08T00:20:48.049Z,27.64
2023-05-08T00:21:48.086Z,27.62
2023-05-08T00:22:48.120Z,27.61
2023-05-08T00:23:48.183Z,27.61
2023-05-08T00:24:48.228Z,27.61
2023-05-08T00:25:48.254Z,27.61
2023-05-08T00:26:48.303Z,27.61
2023-05-08T00:27:48.334Z,27.61
2023-05-08T00:28:48.378Z,27.61
2023-05-08T00:29:48.388Z,27.61
2023-05-08T00:30:48.480Z,27.58
2023-05-08T00:31:48.520Z,27.61
2023-05-08T00:32:48.624Z,27.61
2023-05-08T00:33:48.549Z,27.61
2023-05-08T00:34:48.596Z,27.61
2023-05-08T00:35:48.668Z,27.62
2023-05-08T00:36:48.664Z,27.62
2023-05-08T00:37:48.710Z,27.62
2023-05-08T00:38:48.728Z,27.61
2023-05-08T00:39:48.754Z,27.58
2023-05-08T00:40:48.769Z,27.61
2023-05-08T00:41:48.846Z,27.61
2023-05-08T00:42:48.890Z,27.58
2023-05-08T00:43:48.883Z,27.62
2023-05-08T00:44:48.957Z,27.60
2023-05-08T00:45:48.969Z,27.60
2023-05-08T00:46:49.068Z,27.62
2023-05-08T00:47:49.052Z,27.62
2023-05-08T00:48:49.129Z,27.61
2023-05-08T00:49:49.124Z,27.60
2023-05-08T00:50:49.172Z,27.62
2023-05-08T00:51:49.156Z,27.61
2023-05-08T00:52:49.249Z,27.60
2023-05-08T00:53:49.249Z,27.62
2023-05-08T00:54:49.287Z,27.60
2023-05-08T00:55:49.328Z,27.60
2023-05-08T00:56:49.390Z,27.61
2023-05-08T00:57:49.399Z,27.61
2023-05-08T00:58:49.447Z,27.61
2023-05-08T00:59:49.453Z,27.62
2023-05-08T01:00:49.494Z,27.62
2023-05-08T01:01:49.542Z,27.60
2023-05-08T01:02:49.665Z,27.61
2023-05-08T01:03:49.693Z,27.64
2023-05-08T01:04:49.640Z,27.61
2023-05-08T01:05:49.668Z,27.61
2023-05-08T01:06:49.721Z,27.62
2023-05-08T01:07:49.717Z,27.61
2023-05-08T01:08:49.777Z,27.64
2023-05-08T01:09:49.790Z,27.60
2023-05-08T01:10:49.843Z,27.62
2023-05-08T01:11:49.893Z,27.58
2023-05-08T01:12:49.951Z,27.61
2023-05-08T01:13:49.955Z,27.61
2023-05-08T01:14:50.006Z,27.60
2023-05-08T01:15:50.004Z,27.64
2023-05-08T01:16:50.029Z,27.62
2023-05-08T01:17:50.110Z,27.62
2023-05-08T01:18:50.150Z,27.61
2023-05-08T01:19:50.159Z,27.62
2023-05-08T01:20:50.184Z,27.62
2023-05-08T01:21:50.198Z,27.61
2023-05-08T01:22:50.293Z,27.62
2023-05-08T01:23:50.311Z,27.61
2023-05-08T01:24:50.310Z,27.64
2023-05-08T01:25:50.358Z,27.62
2023-05-08T01:26:50.395Z,27.62
2023-05-08T01:27:50.443Z,27.64
2023-05-08T01:28:50.480Z,27.62
2023-05-08T01:29:50.481Z,27.64
2023-05-08T01:30:50.495Z,27.64
2023-05-08T01:31:50.568Z,27.64
2023-05-08T01:32:50.705Z,27.61
2023-05-08T01:33:50.676Z,27.62
2023-05-08T01:34:50.684Z,27.64
2023-05-08T01:35:50.716Z,27.62
2023-05-08T01:36:50.719Z,27.61
2023-05-08T01:37:50.770Z,27.61
2023-05-08T01:38:50.832Z,27.61
2023-05-08T01:39:50.870Z,27.62
2023-05-08T01:40:50.898Z,27.64
2023-05-08T01:41:50.922Z,27.61
2023-05-08T01:42:50.962Z,27.61
2023-05-08T01:43:51.008Z,27.61
2023-05-08T01:44:51.032Z,27.62
2023-05-08T01:45:51.099Z,27.62
2023-05-08T01:46:51.186Z,27.62
2023-05-08T01:47:51.152Z,27.62
2023-05-08T01:48:51.170Z,27.64
2023-05-08T01:49:51.222Z,27.61
2023-05-08T01:50:51.254Z,27.61
2023-05-08T01:51:51.268Z,27.62
2023-05-08T01:52:51.330Z,27.62
2023-05-08T01:53:51.348Z,27.64
2023-05-08T01:54:51.358Z,27.62
2023-05-08T01:55:51.410Z,27.64
2023-05-08T01:56:51.439Z,27.64
2023-05-08T01:57:51.488Z,27.62
2023-05-08T01:58:51.486Z,27.62
2023-05-08T01:59:51.530Z,27.62
2023-05-08T02:00:51.607Z,27.62
2023-05-08T02:01:51.635Z,27.64
2023-05-08T02:02:51.676Z,27.65
2023-05-08T02:03:51.700Z,27.62
2023-05-08T02:04:51.724Z,27.64
2023-05-08T02:05:51.741Z,27.64
2023-05-08T02:06:51.718Z,27.64
2023-05-08T02:07:51.793Z,27.62
2023-05-08T02:08:51.820Z,27.65
2023-05-08T02:09:51.831Z,27.65
2023-05-08T02:10:51.871Z,27.62
2023-05-08T02:11:51.937Z,27.62
2023-05-08T02:12:51.990Z,27.64
2023-05-08T02:13:51.980Z,27.62
2023-05-08T02:14:52.028Z,27.62
2023-05-08T02:15:52.049Z,27.64
2023-05-08T02:16:52.109Z,27.61
2023-05-08T02:17:52.221Z,27.64
2023-05-08T02:18:52.140Z,27.61
2023-05-08T02:19:52.150Z,27.64
2023-05-08T02:20:52.178Z,27.64
2023-05-08T02:21:52.227Z,27.64
2023-05-08T02:22:52.332Z,27.62
2023-05-08T02:23:52.273Z,27.64
2023-05-08T02:24:52.330Z,27.65
2023-05-08T02:25:52.351Z,27.64
2023-05-08T02:26:52.373Z,27.61
2023-05-08T02:27:52.415Z,27.64
2023-05-08T02:28:52.447Z,27.64
2023-05-08T02:29:52.478Z,27.65
2023-05-08T02:30:52.509Z,27.64
2023-05-08T02:31:52.596Z,27.64
2023-05-08T02:32:52.563Z,27.64
2023-05-08T02:33:52.588Z,27.62
2023-05-08T02:35:02.501Z,27.64
2023-05-08T02:35:53.618Z,27.64
2023-05-08T02:36:52.591Z,27.64
2023-05-08T02:37:52.635Z,27.64
2023-05-08T02:38:52.579Z,27.65
2023-05-08T02:39:52.621Z,27.64
2023-05-08T02:40:52.559Z,27.62
2023-05-08T02:41:52.594Z,27.64
2023-05-08T02:42:52.568Z,27.65
2023-05-08T02:43:52.558Z,27.64
2023-05-08T02:44:52.564Z,27.64
2023-05-08T02:45:52.675Z,27.66
2023-05-08T02:46:52.538Z,27.62
2023-05-08T02:47:52.591Z,27.64
2023-05-08T02:48:52.517Z,27.65
2023-05-08T02:49:52.523Z,27.65
2023-05-08T02:50:52.556Z,27.65
2023-05-08T02:51:52.574Z,27.64
2023-05-08T02:52:52.622Z,27.60
2023-05-08T02:53:52.623Z,27.61
2023-05-08T02:54:52.666Z,27.62
2023-05-08T02:55:52.700Z,27.62
2023-05-08T02:56:52.743Z,27.64
2023-05-08T02:57:52.750Z,27.62
2023-05-08T02:58:52.795Z,27.64
2023-05-08T02:59:52.830Z,27.64
2023-05-08T03:00:52.853Z,27.66
2023-05-08T03:01:53.022Z,27.62
2023-05-08T03:02:52.993Z,27.64
2023-05-08T03:03:53.214Z,27.64
2023-05-08T03:04:52.965Z,27.64
2023-05-08T03:05:52.975Z,27.62
2023-05-08T03:06:53.026Z,27.64
2023-05-08T03:07:53.038Z,27.62
2023-05-08T03:08:53.085Z,27.64
2023-05-08T03:09:53.116Z,27.65
2023-05-08T03:10:53.128Z,27.65
2023-05-08T03:11:53.145Z,27.64
2023-05-08T03:12:53.223Z,27.65
2023-05-08T03:13:53.216Z,27.62
2023-05-08T03:14:53.259Z,27.65
2023-05-08T03:15:53.325Z,27.64
2023-05-08T03:16:53.294Z,27.62
2023-05-08T03:17:53.371Z,27.64
2023-05-08T03:18:53.423Z,27.65
2023-05-08T03:19:53.389Z,27.65
2023-05-08T03:20:53.434Z,27.61
2023-05-08T03:21:53.480Z,27.62
2023-05-08T03:22:53.513Z,27.64
2023-05-08T03:23:53.554Z,27.65
2023-05-08T03:24:53.596Z,27.64
2023-05-08T03:25:53.576Z,27.62
2023-05-08T03:26:53.618Z,27.62
2023-05-08T03:27:53.654Z,27.64
2023-05-08T03:28:53.690Z,27.65
2023-05-08T03:29:53.715Z,27.64
2023-05-08T03:30:53.760Z,27.65
2023-05-08T03:31:53.738Z,27.65
2023-05-08T03:32:53.797Z,27.61
2023-05-08T03:33:53.765Z,27.65
2023-05-08T03:34:53.772Z,27.66
2023-05-08T03:35:53.765Z,27.64
2023-05-08T03:36:53.751Z,27.62
2023-05-08T03:37:53.815Z,27.61
2023-05-08T03:38:53.840Z,27.65
2023-05-08T03:39:53.840Z,27.62
2023-05-08T03:40:53.864Z,27.64
2023-05-08T03:41:53.914Z,27.65
2023-05-08T03:42:53.948Z,27.64
2023-05-08T03:43:53.974Z,27.62
2023-05-08T03:44:54.006Z,27.64
2023-05-08T03:45:54.006Z,27.66
2023-05-08T03:46:54.091Z,27.65
2023-05-08T03:47:54.136Z,27.64
2023-05-08T03:48:54.105Z,27.62
2023-05-08T03:49:54.109Z,27.64
2023-05-08T03:50:54.164Z,27.66
2023-05-08T03:51:54.206Z,27.64
2023-05-08T03:52:54.239Z,27.62
2023-05-08T03:53:54.276Z,27.64
2023-05-08T03:54:54.285Z,27.64
2023-05-08T03:55:54.296Z,27.62
2023-05-08T03:56:54.345Z,27.61
2023-05-08T03:57:54.357Z,27.64
2023-05-08T03:58:54.376Z,27.64
2023-05-08T03:59:54.430Z,27.62
2023-05-08T04:00:54.468Z,27.64
2023-05-08T04:01:54.475Z,27.62
2023-05-08T04:02:54.584Z,27.65
2023-05-08T04:03:54.733Z,27.64
2023-05-08T04:04:54.556Z,27.64
2023-05-08T04:05:54.585Z,27.65
2023-05-08T04:06:54.608Z,27.64
2023-05-08T04:07:54.618Z,27.64
2023-05-08T04:08:54.668Z,27.65
2023-05-08T04:09:54.674Z,27.64
2023-05-08T04:10:54.688Z,27.62
2023-05-08T04:11:54.741Z,27.66
2023-05-08T04:12:54.769Z,27.65
2023-05-08T04:13:54.782Z,27.65
2023-05-08T04:14:56.521Z,27.64
2023-05-08T04:15:54.853Z,27.65
2023-05-08T04:16:54.891Z,27.65
2023-05-08T04:17:54.928Z,27.65
2023-05-08T04:18:54.911Z,27.65
2023-05-08T04:19:54.940Z,27.64
2023-05-08T04:20:54.976Z,27.64
2023-05-08T04:21:55.003Z,27.64
2023-05-08T04:22:55.015Z,27.64
2023-05-08T04:23:55.079Z,27.65
2023-05-08T04:24:55.105Z,27.64
2023-05-08T04:25:55.132Z,27.65
2023-05-08T04:26:55.132Z,27.65
2023-05-08T04:27:55.202Z,27.65
2023-05-08T04:28:55.208Z,27.65
2023-05-08T04:29:55.249Z,27.64
2023-05-08T04:30:55.250Z,27.66
2023-05-08T04:31:55.280Z,27.64
2023-05-08T04:32:55.323Z,27.64
2023-05-08T04:33:55.312Z,27.66
2023-05-08T04:34:55.406Z,27.64
2023-05-08T04:35:55.400Z,27.65
2023-05-08T04:36:55.427Z,27.65
2023-05-08T04:37:55.467Z,27.64
2023-05-08T04:38:55.497Z,27.65
2023-05-08T04:39:55.523Z,27.64
2023-05-08T04:40:55.517Z,27.65
2023-05-08T04:41:55.558Z,27.64
2023-05-08T04:42:55.604Z,27.65
2023-05-08T04:43:55.626Z,27.65
2023-05-08T04:44:55.650Z,27.66
2023-05-08T04:45:55.727Z,27.65
2023-05-08T04:46:55.674Z,27.66
2023-05-08T04:47:55.717Z,27.65
2023-05-08T04:48:55.746Z,27.65
2023-05-08T04:49:55.771Z,27.64
2023-05-08T04:50:55.801Z,27.65
2023-05-08T04:51:55.850Z,27.66
2023-05-08T04:52:55.871Z,27.65
2023-05-08T04:53:55.880Z,27.64
2023-05-08T04:54:55.923Z,27.66
2023-05-08T04:55:55.930Z,27.65
2023-05-08T04:56:55.982Z,27.65
2023-05-08T04:57:55.980Z,27.65
2023-05-08T04:58:56.040Z,27.65
2023-05-08T04:59:56.070Z,27.65
2023-05-08T05:00:56.085Z,27.65
2023-05-08T05:02:03.202Z,27.65
2023-05-08T05:02:56.160Z,27.65
2023-05-08T05:03:56.100Z,27.65
2023-05-08T05:04:56.100Z,27.65
2023-05-08T05:05:56.093Z,27.64
2023-05-08T05:06:56.090Z,27.65
2023-05-08T05:07:56.102Z,27.65
2023-05-08T05:08:56.110Z,27.62
2023-05-08T05:09:56.096Z,27.64
2023-05-08T05:10:56.073Z,27.65
2023-05-08T05:11:57.968Z,27.66
2023-05-08T05:12:56.090Z,27.66
2023-05-08T05:13:56.032Z,27.66
2023-05-08T05:14:56.036Z,27.66
2023-05-08T05:15:56.077Z,27.64
2023-05-08T05:16:56.008Z,27.65
2023-05-08T05:17:56.037Z,27.65
2023-05-08T05:18:56.026Z,27.66
2023-05-08T05:19:56.029Z,27.65
2023-05-08T05:20:56.069Z,27.64
2023-05-08T05:21:56.077Z,27.64
2023-05-08T05:22:56.135Z,27.64
2023-05-08T05:23:56.127Z,27.68
2023-05-08T05:24:56.152Z,27.62
2023-05-08T05:25:56.214Z,27.64
2023-05-08T05:26:56.219Z,27.66
2023-05-08T05:27:56.282Z,27.68
2023-05-08T05:28:56.311Z,27.66
2023-05-08T05:29:56.328Z,27.65
2023-05-08T05:30:56.335Z,27.64
2023-05-08T05:31:56.500Z,27.66
2023-05-08T05:32:56.454Z,27.68
2023-05-08T05:33:56.505Z,27.65
2023-05-08T05:34:56.448Z,27.66
2023-05-08T05:35:56.502Z,27.62
2023-05-08T05:36:56.512Z,27.65
2023-05-08T05:37:56.576Z,27.68
2023-05-08T05:38:57.021Z,27.68
2023-05-08T05:39:57.688Z,27.69
2023-05-08T05:40:56.681Z,27.71
2023-05-08T05:41:56.639Z,27.71
2023-05-08T05:42:57.497Z,27.72
2023-05-08T05:43:56.567Z,27.74
2023-05-08T05:44:56.574Z,27.78
2023-05-08T05:46:04.070Z,27.82
2023-05-08T05:46:56.638Z,27.82
2023-05-08T05:47:56.617Z,27.87
2023-05-08T05:48:57.021Z,27.91
2023-05-08T05:49:56.613Z,27.94
2023-05-08T05:50:56.613Z,27.99
2023-05-08T05:51:56.529Z,28.02
2023-05-08T05:52:56.545Z,28.05
2023-05-08T05:53:56.524Z,28.08
2023-05-08T05:54:56.526Z,28.12
2023-05-08T05:55:56.574Z,28.18
2023-05-08T05:56:56.477Z,28.18
2023-05-08T05:57:56.488Z,28.20
2023-05-08T05:58:56.505Z,28.23
2023-05-08T05:59:56.537Z,28.26
2023-05-08T06:00:56.585Z,28.29
2023-05-08T06:01:56.606Z,28.34
2023-05-08T06:02:56.698Z,28.36
2023-05-08T06:03:56.582Z,28.38
2023-05-08T06:04:56.428Z,28.40
2023-05-08T06:05:56.684Z,28.43
2023-05-08T06:06:56.425Z,28.46
2023-05-08T06:07:56.433Z,28.47
2023-05-08T06:08:56.460Z,28.52
2023-05-08T06:09:56.428Z,28.53
2023-05-08T06:10:56.559Z,28.55
2023-05-08T06:11:56.551Z,28.56
2023-05-08T06:12:56.633Z,28.55
2023-05-08T06:13:57.043Z,28.56
2023-05-08T06:14:56.803Z,28.55
2023-05-08T06:15:56.858Z,28.55
2023-05-08T06:16:56.952Z,28.55
2023-05-08T06:17:57.081Z,28.53
2023-05-08T06:18:57.005Z,28.52
2023-05-08T06:19:57.038Z,28.50
2023-05-08T06:20:57.014Z,28.50
2023-05-08T06:21:57.114Z,28.49
2023-05-08T06:22:57.059Z,28.49
2023-05-08T06:23:57.098Z,28.46
2023-05-08T06:24:57.064Z,28.46
2023-05-08T06:25:57.056Z,28.43
2023-05-08T06:26:57.066Z,28.42
2023-05-08T06:27:57.086Z,28.42
2023-05-08T06:28:57.043Z,28.40
2023-05-08T06:29:57.540Z,28.42
2023-05-08T06:30:57.129Z,28.40
2023-05-08T06:31:57.101Z,28.40
2023-05-08T06:32:57.123Z,28.40
2023-05-08T06:33:57.044Z,28.42
2023-05-08T06:34:57.036Z,28.42
2023-05-08T06:35:57.058Z,28.39
2023-05-08T06:36:57.070Z,28.39
2023-05-08T06:37:57.141Z,28.38
2023-05-08T06:38:57.131Z,28.34
2023-05-08T06:40:11.056Z,28.30
2023-05-08T06:40:58.074Z,28.27
2023-05-08T06:41:57.103Z,28.23
2023-05-08T06:42:57.139Z,28.19
2023-05-08T06:43:57.091Z,28.19
2023-05-08T06:44:57.610Z,28.16
2023-05-08T06:45:57.182Z,28.16
2023-05-08T06:46:57.235Z,28.18
2023-05-08T06:47:57.300Z,28.20
2023-05-08T06:48:58.220Z,28.23
2023-05-08T06:49:58.201Z,28.26
2023-05-08T06:50:57.261Z,28.29
2023-05-08T06:51:58.417Z,28.32
2023-05-08T06:52:57.146Z,28.35
2023-05-08T06:53:57.187Z,28.39
2023-05-08T06:54:57.189Z,28.46
2023-05-08T06:55:57.249Z,28.46
2023-05-08T06:56:57.126Z,28.50
2023-05-08T06:57:57.149Z,28.53
2023-05-08T06:59:07.754Z,28.57
2023-05-08T06:59:59.220Z,28.62
2023-05-08T07:00:57.180Z,28.63
2023-05-08T07:01:57.456Z,28.67
2023-05-08T07:02:57.248Z,28.67
2023-05-08T07:03:57.171Z,28.73
2023-05-08T07:04:57.243Z,28.73
2023-05-08T07:05:57.114Z,28.74
2023-05-08T07:06:57.160Z,28.77
2023-05-08T07:07:57.060Z,28.80
2023-05-08T07:08:57.070Z,28.81
2023-05-08T07:09:57.574Z,28.86
2023-05-08T07:10:57.060Z,28.87
2023-05-08T07:11:57.031Z,28.90
2023-05-08T07:12:57.255Z,28.91
2023-05-08T07:13:57.271Z,28.93
2023-05-08T07:14:58.018Z,28.94
2023-05-08T07:15:57.253Z,28.99
2023-05-08T07:16:58.135Z,28.99
2023-05-08T07:17:57.163Z,29.00
2023-05-08T07:18:57.209Z,29.00
2023-05-08T07:19:57.092Z,29.03
2023-05-08T07:20:57.192Z,29.01
2023-05-08T07:21:57.150Z,29.04
2023-05-08T07:22:57.085Z,29.07
2023-05-08T07:23:57.087Z,29.10
2023-05-08T07:24:57.570Z,29.07
2023-05-08T07:25:57.078Z,29.10
2023-05-08T07:26:57.066Z,29.10
2023-05-08T07:27:58.644Z,29.14
2023-05-08T07:28:57.044Z,29.14
2023-05-08T07:29:57.089Z,29.14
2023-05-08T07:30:57.076Z,29.14
2023-05-08T07:31:57.129Z,29.18
2023-05-08T07:32:57.116Z,29.20
2023-05-08T07:33:57.062Z,29.10
2023-05-08T07:34:57.024Z,29.11
2023-05-08T07:35:57.032Z,29.06
2023-05-08T07:36:56.996Z,28.93
2023-05-08T07:37:57.002Z,28.50
2023-05-08T07:38:57.016Z,28.11
2023-05-08T07:39:57.020Z,28.08
2023-05-08T07:40:57.192Z,27.94
2023-05-08T07:41:56.971Z,27.75
2023-05-08T07:42:56.984Z,27.65
2023-05-08T07:43:56.973Z,27.58
2023-05-08T07:44:56.990Z,27.57
2023-05-08T07:45:56.927Z,27.61
2023-05-08T07:46:56.952Z,27.60
2023-05-08T07:47:57.073Z,27.62
2023-05-08T07:48:56.941Z,27.68
2023-05-08T07:49:57.073Z,27.75
2023-05-08T07:50:56.932Z,27.82
2023-05-08T07:51:56.895Z,27.84
2023-05-08T07:52:56.896Z,27.89
2023-05-08T07:53:56.895Z,27.98
2023-05-08T07:54:57.091Z,28.04
2023-05-08T07:55:56.913Z,28.11
2023-05-08T07:56:56.880Z,28.16
2023-05-08T07:57:56.827Z,28.23
2023-05-08T07:58:56.818Z,28.27
2023-05-08T07:59:57.034Z,28.35
2023-05-08T08:00:56.830Z,28.40
2023-05-08T08:01:56.862Z,28.43
2023-05-08T08:02:56.922Z,28.49
2023-05-08T08:03:57.013Z,28.55
2023-05-08T08:04:57.107Z,28.57
2023-05-08T08:05:56.843Z,28.60
2023-05-08T08:06:56.800Z,28.66
2023-05-08T08:07:56.897Z,28.70
2023-05-08T08:08:56.778Z,28.74
2023-05-08T08:09:56.787Z,28.77
2023-05-08T08:10:56.814Z,28.80
2023-05-08T08:11:56.757Z,28.80
2023-05-08T08:12:56.900Z,28.77
2023-05-08T08:13:56.738Z,28.81
2023-05-08T08:14:56.734Z,28.86
2023-05-08T08:15:56.792Z,28.84
2023-05-08T08:16:56.785Z,28.90
2023-05-08T08:17:56.799Z,28.91
2023-05-08T08:18:56.707Z,28.91
2023-05-08T08:19:56.818Z,28.97
2023-05-08T08:20:56.717Z,29.00
2023-05-08T08:21:56.733Z,29.00
2023-05-08T08:22:56.775Z,29.03
2023-05-08T08:23:56.705Z,29.06
2023-05-08T08:24:56.753Z,29.10
2023-05-08T08:25:56.685Z,29.10
2023-05-08T08:26:56.653Z,29.13
2023-05-08T08:27:56.677Z,29.13
2023-05-08T08:28:56.704Z,29.18
2023-05-08T08:30:15.178Z,29.20
2023-05-08T08:30:58.146Z,29.20
2023-05-08T08:31:56.649Z,29.24
2023-05-08T08:32:56.642Z,29.21
2023-05-08T08:33:56.649Z,29.22
2023-05-08T08:34:56.635Z,29.24
2023-05-08T08:35:57.185Z,29.13
2023-05-08T08:36:56.633Z,28.96
2023-05-08T08:37:56.952Z,28.55
2023-05-08T08:38:56.592Z,28.25
2023-05-08T08:39:57.506Z,28.09
2023-05-08T08:40:56.596Z,27.72
2023-05-08T08:41:56.599Z,27.66
2023-05-08T08:42:56.584Z,27.53
2023-05-08T08:43:56.589Z,27.38
2023-05-08T08:44:56.580Z,27.17
2023-05-08T08:45:56.636Z,27.00
2023-05-08T08:46:57.568Z,26.87
2023-05-08T08:47:56.574Z,26.76
2023-05-08T08:48:56.555Z,26.49
2023-05-08T08:49:56.534Z,26.43
2023-05-08T08:50:56.595Z,26.38
2023-05-08T08:51:56.620Z,26.34
2023-05-08T08:52:56.521Z,26.35
2023-05-08T08:53:56.539Z,26.35
2023-05-08T08:54:56.576Z,26.39
2023-05-08T08:55:56.580Z,26.45
2023-05-08T08:56:56.482Z,26.49
2023-05-08T08:57:56.601Z,26.63
2023-05-08T08:58:56.643Z,26.68
2023-05-08T08:59:56.603Z,26.78
2023-05-08T09:00:56.655Z,26.87
2023-05-08T09:01:56.716Z,26.96
2023-05-08T09:02:56.824Z,27.04
2023-05-08T09:03:56.828Z,27.10
2023-05-08T09:04:56.736Z,27.20
2023-05-08T09:05:57.135Z,27.27
2023-05-08T09:06:56.790Z,27.33
2023-05-08T09:07:56.835Z,27.41
2023-05-08T09:08:56.790Z,27.48
2023-05-08T09:09:56.797Z,27.51
2023-05-08T09:10:57.138Z,27.60
2023-05-08T09:11:56.807Z,27.65
2023-05-08T09:12:56.920Z,27.69
2023-05-08T09:13:56.811Z,27.77
2023-05-08T09:14:56.840Z,27.81
2023-05-08T09:15:57.130Z,27.88
2023-05-08T09:16:56.932Z,27.91
2023-05-08T09:17:57.053Z,27.96
2023-05-08T09:18:57.126Z,28.02
2023-05-08T09:19:57.120Z,28.08
2023-05-08T09:20:57.162Z,28.09
2023-05-08T09:21:57.255Z,28.13
2023-05-08T09:22:57.357Z,28.19
2023-05-08T09:23:57.450Z,28.23
2023-05-08T09:24:57.390Z,28.29
2023-05-08T09:25:57.644Z,28.30
2023-05-08T09:26:57.426Z,28.36
2023-05-08T09:27:57.495Z,28.39
2023-05-08T09:28:57.592Z,28.42
2023-05-08T09:29:57.644Z,28.45
2023-05-08T09:30:58.116Z,28.47
2023-05-08T09:31:57.811Z,28.50
2023-05-08T09:32:57.832Z,28.50
2023-05-08T09:33:57.992Z,28.53
2023-05-08T09:34:58.039Z,28.59
2023-05-08T09:35:58.903Z,28.57
2023-05-08T09:36:58.162Z,28.62
2023-05-08T09:37:57.882Z,28.63
2023-05-08T09:38:57.862Z,28.69
2023-05-08T09:39:57.994Z,28.70
2023-05-08T09:40:57.902Z,28.71
2023-05-08T09:41:58.150Z,28.71
2023-05-08T09:42:57.848Z,28.74
2023-05-08T09:43:58.097Z,28.70
2023-05-08T09:44:57.866Z,28.64
2023-05-08T09:45:57.944Z,28.59
2023-05-08T09:46:57.908Z,28.59
2023-05-08T09:47:58.012Z,28.59
2023-05-08T09:48:57.976Z,28.55
2023-05-08T09:49:57.984Z,28.56
2023-05-08T09:50:58.156Z,28.53
2023-05-08T09:51:58.192Z,28.56
2023-05-08T09:52:58.190Z,28.56
2023-05-08T09:53:58.220Z,28.55
2023-05-08T09:54:58.218Z,28.55
2023-05-08T09:55:58.348Z,28.56
2023-05-08T09:56:58.316Z,28.59
2023-05-08T09:57:58.503Z,28.57
2023-05-08T09:58:58.447Z,28.59
2023-05-08T09:59:58.479Z,28.62
2023-05-08T10:00:58.582Z,28.59
2023-05-08T10:01:58.631Z,28.60
2023-05-08T10:02:58.678Z,28.62
2023-05-08T10:03:58.816Z,28.62
2023-05-08T10:04:58.838Z,28.63
2023-05-08T10:05:58.867Z,28.63
2023-05-08T10:06:59.134Z,28.66
2023-05-08T10:07:58.953Z,28.69
2023-05-08T10:08:59.026Z,28.69
2023-05-08T10:09:59.064Z,28.69
2023-05-08T10:10:59.219Z,28.69
2023-05-08T10:11:59.729Z,28.69
2023-05-08T10:12:59.361Z,28.70
2023-05-08T10:14:00.212Z,28.70
2023-05-08T10:14:59.379Z,28.74
2023-05-08T10:15:59.441Z,28.74
2023-05-08T10:16:59.542Z,28.71
2023-05-08T10:17:59.559Z,28.73
2023-05-08T10:18:59.609Z,28.70
2023-05-08T10:19:59.633Z,28.77
2023-05-08T10:20:59.694Z,28.77
2023-05-08T10:22:00.160Z,28.79
2023-05-08T10:22:59.960Z,28.79
2023-05-08T10:23:59.831Z,28.79
2023-05-08T10:24:59.907Z,28.84
2023-05-08T10:25:59.928Z,28.84
2023-05-08T10:27:06.372Z,28.84
2023-05-08T10:28:01.022Z,28.87
2023-05-08T10:28:59.973Z,28.89
2023-05-08T10:29:59.944Z,28.89
2023-05-08T10:30:59.966Z,28.91
2023-05-08T10:32:00.163Z,28.90
2023-05-08T10:32:59.942Z,28.91
2023-05-08T10:33:59.931Z,28.91
2023-05-08T10:34:59.941Z,28.96
2023-05-08T10:35:59.887Z,28.96
2023-05-08T10:37:00.271Z,28.99
2023-05-08T10:38:00.549Z,28.96
2023-05-08T10:38:59.957Z,28.96
2023-05-08T10:39:59.983Z,28.96
2023-05-08T10:41:00.030Z,28.96
2023-05-08T10:42:00.089Z,28.91
2023-05-08T10:43:00.153Z,28.93
2023-05-08T10:44:02.556Z,28.90
2023-05-08T10:45:00.246Z,28.89
2023-05-08T10:46:00.269Z,28.87
2023-05-08T10:47:00.677Z,28.87
2023-05-08T10:48:00.200Z,28.86
2023-05-08T10:49:00.161Z,28.83
2023-05-08T10:50:00.269Z,28.80
2023-05-08T10:51:00.152Z,28.80
2023-05-08T10:52:00.171Z,28.77
2023-05-08T10:53:00.118Z,28.77
2023-05-08T10:54:00.109Z,28.71
2023-05-08T10:55:00.128Z,28.71
2023-05-08T10:56:00.137Z,28.67
2023-05-08T10:57:00.154Z,28.64
2023-05-08T10:58:00.103Z,28.63
2023-05-08T10:59:00.109Z,28.60
2023-05-08T11:00:00.147Z,28.57
2023-05-08T11:01:00.146Z,28.53
2023-05-08T11:02:00.244Z,28.52
2023-05-08T11:03:00.238Z,28.49
2023-05-08T11:04:00.282Z,28.42
2023-05-08T11:05:00.029Z,28.39
2023-05-08T11:06:00.059Z,28.36
2023-05-08T11:07:00.171Z,28.32
2023-05-08T11:08:00.117Z,28.27
2023-05-08T11:09:01.020Z,28.23
2023-05-08T11:10:00.013Z,28.19
2023-05-08T11:11:00.021Z,28.18
2023-05-08T11:12:00.251Z,28.15
2023-05-08T11:13:00.006Z,28.13
2023-05-08T11:13:59.986Z,28.09
2023-05-08T11:14:59.985Z,28.06
2023-05-08T11:16:00.005Z,28.05
2023-05-08T11:17:00.618Z,28.04
2023-05-08T11:17:59.957Z,28.02
2023-05-08T11:18:59.941Z,28.04
2023-05-08T11:19:59.946Z,28.01
2023-05-08T11:20:59.954Z,28.02
2023-05-08T11:21:59.937Z,27.99
2023-05-08T11:23:00.162Z,27.99
2023-05-08T11:23:59.898Z,27.99
2023-05-08T11:24:59.906Z,27.95
2023-05-08T11:25:59.880Z,27.96
2023-05-08T11:26:59.877Z,27.95
2023-05-08T11:28:00.185Z,27.98
2023-05-08T11:28:59.892Z,27.95
2023-05-08T11:29:59.906Z,27.95
2023-05-08T11:30:59.905Z,27.95
2023-05-08T11:31:59.939Z,27.96
2023-05-08T11:33:00.274Z,27.95
2023-05-08T11:33:59.862Z,27.95
2023-05-08T11:34:59.865Z,27.95
2023-05-08T11:35:59.871Z,27.94
2023-05-08T11:36:59.834Z,27.94
2023-05-08T11:37:59.812Z,27.94
2023-05-08T11:38:59.799Z,27.94
2023-05-08T11:39:59.821Z,27.89
2023-05-08T11:40:59.840Z,27.87
2023-05-08T11:41:59.835Z,27.82
2023-05-08T11:42:59.866Z,27.82
2023-05-08T11:43:59.790Z,27.80
2023-05-08T11:44:59.798Z,27.80
2023-05-08T11:45:59.794Z,27.75
2023-05-08T11:46:59.866Z,27.77
2023-05-08T11:47:59.890Z,27.74
2023-05-08T11:48:59.886Z,27.77
2023-05-08T11:49:59.949Z,27.77
2023-05-08T11:50:59.945Z,27.75
2023-05-08T11:52:00.105Z,27.75
2023-05-08T11:53:00.031Z,27.74
2023-05-08T11:54:00.095Z,27.74
2023-05-08T11:55:00.063Z,27.75
2023-05-08T11:56:00.128Z,27.78
2023-05-08T11:57:00.083Z,27.77
2023-05-08T11:58:00.132Z,27.72
2023-05-08T11:59:00.174Z,27.75
2023-05-08T12:00:00.184Z,27.75
2023-05-08T12:01:00.296Z,27.75
2023-05-08T12:02:08.508Z,27.78
2023-05-08T12:03:01.407Z,27.77
2023-05-08T12:04:00.371Z,27.78
2023-05-08T12:05:00.286Z,27.78
2023-05-08T12:06:00.287Z,27.80
2023-05-08T12:07:00.225Z,27.80
2023-05-08T12:08:00.203Z,27.82
2023-05-08T12:09:00.212Z,27.78
2023-05-08T12:10:00.218Z,27.77
2023-05-08T12:11:00.234Z,27.75
2023-05-08T12:12:00.212Z,27.77
2023-05-08T12:13:00.286Z,27.78
2023-05-08T12:14:00.188Z,27.78
2023-05-08T12:15:00.180Z,27.78
2023-05-08T12:16:00.189Z,27.80
2023-05-08T12:17:00.184Z,27.81
2023-05-08T12:18:00.200Z,27.81
2023-05-08T12:19:00.143Z,27.87
2023-05-08T12:20:00.184Z,27.87
2023-05-08T12:21:00.180Z,27.87
2023-05-08T12:22:00.172Z,27.89
2023-05-08T12:23:00.166Z,27.91
2023-05-08T12:24:00.167Z,27.92
2023-05-08T12:25:00.168Z,27.91
2023-05-08T12:26:00.165Z,27.91
2023-05-08T12:27:00.165Z,27.94
2023-05-08T12:28:00.216Z,27.95
2023-05-08T12:29:00.213Z,28.01
2023-05-08T12:30:00.212Z,27.98
2023-05-08T12:31:00.261Z,28.01
2023-05-08T12:32:00.235Z,27.99
2023-05-08T12:33:00.373Z,28.02
2023-05-08T12:34:00.194Z,28.04
2023-05-08T12:35:00.223Z,28.05
2023-05-08T12:36:00.211Z,28.06
2023-05-08T12:37:00.260Z,28.06
2023-05-08T12:38:00.293Z,28.09
2023-05-08T12:39:00.280Z,28.09
2023-05-08T12:40:00.275Z,28.08
2023-05-08T12:41:00.275Z,28.08
2023-05-08T12:42:01.069Z,28.09
2023-05-08T12:43:00.303Z,28.08
2023-05-08T12:44:00.320Z,28.11
2023-05-08T12:45:00.340Z,28.08
2023-05-08T12:46:00.366Z,28.08
2023-05-08T12:47:00.448Z,28.12
2023-05-08T12:48:00.430Z,28.11
2023-05-08T12:49:00.383Z,28.12
2023-05-08T12:50:00.394Z,28.13
2023-05-08T12:51:00.365Z,28.13
2023-05-08T12:52:00.457Z,28.12
2023-05-08T12:53:00.376Z,28.12